Time;durP1;ratioP1;P1;durP2;ratioP2;P2;SDS_P1;SDS_P2;PMS_P1;PMS_P2;Temp;Humidity;BMP_temperature;BMP_pressure;BME280_temperature;BME280_humidity;BME280_pressure;Samples;Min_cycle;Max_cycle;Signal;HPM_P1;HPM_P2
2021/04/23 04:02:19;;;;;;;7.57;4.18;;;6.60;99.90;;;;;;5092774;23;20259;-71
2021/04/23 04:04:45;;;;;;;9.25;4.18;;;6.50;99.90;;;;;;4937416;29;20538;-71
2021/04/23 04:07:11;;;;;;;6.50;4.70;;;6.50;99.90;;;;;;4937010;28;20218;-71
2021/04/23 04:09:38;;;;;;;9.73;4.72;;;6.60;99.90;;;;;;4937284;29;20230;-69
2021/04/23 04:12:05;;;;;;;8.48;3.97;;;6.50;99.90;;;;;;4936851;29;20228;-70
2021/04/23 04:14:31;;;;;;;4.82;4.43;;;6.60;99.90;;;;;;4936693;29;20233;-71
2021/04/23 04:16:57;;;;;;;9.38;4.90;;;6.60;99.90;;;;;;4937015;29;20221;-70
2021/04/23 04:19:24;;;;;;;6.05;4.32;;;6.60;99.90;;;;;;4936943;29;20206;-71
2021/04/23 04:21:50;;;;;;;9.85;4.07;;;6.60;99.90;;;;;;4936863;29;20226;-70
2021/04/23 04:24:17;;;;;;;9.55;5.47;;;6.60;99.90;;;;;;4936998;29;20222;-69
2021/04/23 04:26:44;;;;;;;7.28;4.30;;;6.60;99.90;;;;;;4936617;29;20249;-69
2021/04/23 04:29:10;;;;;;;8.90;4.15;;;6.60;99.90;;;;;;4936498;29;20233;-69
2021/04/23 04:31:36;;;;;;;9.20;5.18;;;6.60;99.90;;;;;;4936640;29;20234;-69
2021/04/23 04:34:03;;;;;;;9.35;3.90;;;6.60;99.90;;;;;;4936812;29;20206;-71
2021/04/23 04:36:30;;;;;;;9.50;4.28;;;6.60;99.90;;;;;;4937015;29;20225;-71
2021/04/23 04:38:56;;;;;;;7.00;3.65;;;6.60;99.90;;;;;;4937862;29;20237;-71
2021/04/23 04:41:22;;;;;;;12.05;4.13;;;6.60;99.90;;;;;;4936159;29;20702;-71
2021/04/23 04:43:49;;;;;;;10.10;4.13;;;6.60;99.90;;;;;;4936098;29;20209;-71
2021/04/23 04:46:15;;;;;;;6.70;4.13;;;6.70;99.90;;;;;;4936486;29;20217;-69
2021/04/23 04:48:41;;;;;;;14.38;5.03;;;6.70;99.90;;;;;;4936552;29;20206;-69
2021/04/23 04:51:09;;;;;;;9.80;4.22;;;6.70;99.90;;;;;;4936904;29;20293;-70
2021/04/23 04:53:36;;;;;;;9.85;3.88;;;6.70;99.90;;;;;;4936921;29;20209;-68
2021/04/23 04:56:03;;;;;;;5.57;3.55;;;6.70;99.90;;;;;;4937029;29;20268;-68
2021/04/23 04:58:32;;;;;;;8.02;3.95;;;6.80;99.90;;;;;;4937333;29;20289;-68
2021/04/23 05:01:00;;;;;;;7.55;3.75;;;6.80;99.90;;;;;;4937129;29;20229;-68
2021/04/23 05:03:27;;;;;;;11.05;4.47;;;6.80;99.90;;;;;;4936378;29;20541;-68
2021/04/23 05:05:53;;;;;;;3.40;3.10;;;6.90;99.90;;;;;;4935700;29;20217;-68
2021/04/23 05:08:20;;;;;;;7.45;2.90;;;6.90;99.90;;;;;;4936371;29;20209;-69
2021/04/23 05:10:47;;;;;;;6.90;2.63;;;6.90;99.90;;;;;;4935345;29;20629;-68
2021/04/23 05:13:13;;;;;;;8.32;3.00;;;7.00;99.90;;;;;;4935519;29;20237;-68
2021/04/23 05:15:40;;;;;;;4.18;3.10;;;7.00;99.90;;;;;;4935349;29;20213;-68
2021/04/23 05:18:07;;;;;;;9.70;3.85;;;7.10;99.90;;;;;;4936227;29;20214;-68
2021/04/23 05:20:34;;;;;;;7.80;3.30;;;7.10;99.90;;;;;;4935812;29;20242;-68
2021/04/23 05:23:00;;;;;;;5.75;3.35;;;7.20;99.90;;;;;;4935839;29;20214;-68
2021/04/23 05:25:28;;;;;;;8.70;4.55;;;7.20;99.90;;;;;;4935445;29;20730;-69
2021/04/23 05:27:56;;;;;;;10.20;3.50;;;7.30;99.90;;;;;;4935751;29;20229;-69
2021/04/23 05:30:25;;;;;;;5.82;3.60;;;7.30;99.90;;;;;;4935406;29;20233;-69
2021/04/23 05:32:52;;;;;;;4.90;3.50;;;7.40;99.90;;;;;;4935651;29;20674;-69
2021/04/23 05:35:22;;;;;;;4.18;3.78;;;7.40;99.90;;;;;;4935744;29;20277;-69
2021/04/23 05:37:50;;;;;;;6.63;3.30;;;7.60;99.90;;;;;;4936102;29;20210;-69
2021/04/23 05:40:24;;;;;;;3.83;3.40;;;7.80;99.90;;;;;;4934790;29;20210;-69
2021/04/23 05:42:50;;;;;;;7.40;4.70;;;7.90;99.90;;;;;;4935789;29;20214;-69
2021/04/23 05:45:18;;;;;;;5.97;3.03;;;8.00;99.90;;;;;;4935311;29;20209;-69
2021/04/23 05:47:44;;;;;;;7.95;4.10;;;8.20;99.90;;;;;;4935850;29;20210;-69
2021/04/23 05:50:13;;;;;;;6.40;3.05;;;8.40;99.90;;;;;;4935138;29;20257;-69
2021/04/23 05:52:40;;;;;;;9.27;3.40;;;8.60;99.90;;;;;;4935170;29;20214;-68
2021/04/23 05:55:08;;;;;;;10.15;2.88;;;8.70;99.90;;;;;;4934982;29;20220;-69
2021/04/23 05:57:34;;;;;;;8.65;3.85;;;8.90;99.90;;;;;;4935435;29;20214;-69
2021/04/23 06:00:00;;;;;;;7.85;3.75;;;9.00;99.90;;;;;;4934923;29;20202;-69
2021/04/23 06:02:29;;;;;;;3.45;2.92;;;9.10;99.90;;;;;;4934906;29;20590;-69
2021/04/23 06:04:55;;;;;;;6.03;3.28;;;9.40;99.90;;;;;;4935318;29;20213;-70
2021/04/23 06:07:21;;;;;;;4.32;2.65;;;9.70;99.90;;;;;;4934903;29;20269;-70
2021/04/23 06:09:48;;;;;;;5.30;3.10;;;9.60;99.90;;;;;;4935402;29;20293;-68
2021/04/23 06:12:14;;;;;;;3.75;2.20;;;9.80;99.90;;;;;;4934449;29;20229;-70
2021/04/23 06:14:40;;;;;;;4.63;2.78;;;10.30;99.90;;;;;;4934543;29;20681;-70
2021/04/23 06:17:06;;;;;;;4.55;2.72;;;10.90;99.90;;;;;;4934884;29;20578;-70
2021/04/23 06:19:33;;;;;;;5.55;2.35;;;11.10;99.90;;;;;;4935325;29;20217;-70
2021/04/23 06:22:00;;;;;;;11.52;2.72;;;11.00;99.90;;;;;;4934997;29;20740;-70
2021/04/23 06:24:26;;;;;;;7.95;2.90;;;10.80;99.90;;;;;;4934971;29;20206;-70
2021/04/23 06:26:53;;;;;;;6.90;4.15;;;10.40;99.90;;;;;;4935405;29;20221;-70
2021/04/23 06:29:19;;;;;;;4.72;2.63;;;10.10;99.90;;;;;;4935453;29;20222;-70
2021/04/23 06:31:45;;;;;;;4.38;2.55;;;10.10;99.90;;;;;;4935284;29;20257;-70
2021/04/23 06:34:12;;;;;;;2.50;2.30;;;10.00;99.90;;;;;;4934762;29;20223;-70
2021/04/23 06:36:40;;;;;;;7.45;3.33;;;9.90;99.90;;;;;;4934764;29;20257;-70
2021/04/23 06:39:14;;;;;;;6.25;2.70;;;9.70;99.90;;;;;;4934870;29;20206;-71
2021/04/23 06:41:40;;;;;;;6.38;2.60;;;9.80;99.90;;;;;;4934742;29;20609;-70
2021/04/23 06:44:06;;;;;;;5.07;2.80;;;9.90;99.90;;;;;;4934409;29;20565;-70
2021/04/23 06:46:32;;;;;;;8.50;3.45;;;9.80;99.90;;;;;;4934909;29;20206;-70
2021/04/23 06:48:58;;;;;;;7.32;2.78;;;9.80;99.90;;;;;;4934609;29;20216;-70
2021/04/23 06:51:25;;;;;;;9.50;4.35;;;9.90;99.90;;;;;;4935276;29;20230;-69
2021/04/23 06:53:52;;;;;;;4.22;2.45;;;10.00;99.90;;;;;;4936254;29;20220;-69
2021/04/23 06:56:18;;;;;;;4.80;2.80;;;10.40;99.90;;;;;;4935642;29;20584;-70
2021/04/23 06:58:46;;;;;;;4.25;3.13;;;10.70;99.90;;;;;;4934098;29;20209;-69
2021/04/23 07:01:12;;;;;;;7.95;2.85;;;10.90;99.90;;;;;;4934300;29;20234;-69
2021/04/23 07:03:41;;;;;;;4.22;2.63;;;11.30;99.90;;;;;;4933825;29;20288;-69
2021/04/23 07:06:07;;;;;;;5.32;3.22;;;11.60;99.90;;;;;;4934337;28;20214;-69
2021/04/23 07:08:33;;;;;;;4.63;2.63;;;11.60;99.90;;;;;;4934685;29;20377;-69
2021/04/23 07:11:01;;;;;;;5.40;2.90;;;11.30;99.90;;;;;;4933472;29;20379;-70
2021/04/23 07:13:28;;;;;;;4.82;2.45;;;10.70;99.90;;;;;;4934294;29;20225;-70
2021/04/23 07:15:54;;;;;;;5.63;3.05;;;10.10;99.90;;;;;;4933601;29;20210;-71
2021/04/23 07:18:20;;;;;;;9.15;3.88;;;10.00;99.90;;;;;;4934100;29;20210;-71
2021/04/23 07:20:47;;;;;;;7.80;2.30;;;10.40;99.90;;;;;;4934134;29;20237;-70
2021/04/23 07:23:14;;;;;;;3.72;2.80;;;11.00;99.90;;;;;;4934403;29;20301;-68
2021/04/23 07:25:40;;;;;;;5.83;3.17;;;11.70;99.90;;;;;;4933658;29;20238;-68
2021/04/23 07:28:08;;;;;;;6.80;2.73;;;12.10;99.90;;;;;;4935354;29;20539;-69
2021/04/23 07:30:37;;;;;;;5.97;2.47;;;12.30;99.90;;;;;;4937185;29;20520;-69
2021/04/23 07:33:05;;;;;;;3.33;2.53;;;12.60;99.90;;;;;;4937675;29;20462;-70
2021/04/23 07:35:32;;;;;;;3.40;2.30;;;12.90;99.90;;;;;;4938054;29;20477;-70
2021/04/23 07:37:59;;;;;;;7.30;2.57;;;13.00;99.90;;;;;;4937887;29;20544;-69
2021/04/23 07:40:26;;;;;;;3.40;2.00;;;12.90;99.90;;;;;;4936869;29;20565;-69
2021/04/23 07:42:53;;;;;;;6.30;2.97;;;12.40;99.90;;;;;;4937689;29;20465;-69
2021/04/23 07:45:20;;;;;;;4.47;3.22;;;12.00;99.90;;;;;;4937096;29;20469;-69
2021/04/23 07:47:47;;;;;;;3.58;2.75;;;11.50;99.90;;;;;;4937771;29;20213;-70
2021/04/23 07:50:16;;;;;;;4.63;2.72;;;11.00;99.90;;;;;;4937276;29;20230;-70
2021/04/23 07:52:42;;;;;;;2.90;2.28;;;10.70;99.90;;;;;;4937520;29;20218;-70
2021/04/23 07:55:10;;;;;;;6.80;3.30;;;10.60;99.90;;;;;;4937342;29;20217;-70
2021/04/23 07:57:36;;;;;;;2.53;2.38;;;10.50;99.90;;;;;;4937244;29;20693;-70
2021/04/23 08:00:04;;;;;;;9.90;2.47;;;10.40;99.90;;;;;;4936813;29;20290;-70
2021/04/23 08:02:31;;;;;;;2.70;2.60;;;10.30;99.90;;;;;;4937159;29;20234;-70
2021/04/23 08:04:57;;;;;;;3.30;3.00;;;10.20;99.90;;;;;;4937324;29;20213;-70
2021/04/23 08:07:23;;;;;;;5.25;2.97;;;10.20;99.90;;;;;;4937258;28;20209;-70
2021/04/23 08:09:49;;;;;;;5.75;2.40;;;10.20;99.90;;;;;;4937232;29;20230;-70
2021/04/23 08:12:16;;;;;;;6.65;2.72;;;10.20;99.90;;;;;;4936440;29;20536;-70
2021/04/23 08:14:44;;;;;;;4.57;2.55;;;10.20;99.90;;;;;;4936466;29;20220;-70
2021/04/23 08:17:10;;;;;;;5.85;2.95;;;10.20;99.90;;;;;;4937362;29;20214;-70
2021/04/23 08:19:37;;;;;;;2.40;2.20;;;10.30;99.90;;;;;;4937403;29;20288;-70
2021/04/23 08:22:03;;;;;;;4.38;2.83;;;10.40;99.90;;;;;;4937281;29;20230;-69
2021/04/23 08:24:32;;;;;;;5.00;1.90;;;10.40;99.90;;;;;;4937656;29;20614;-70
2021/04/23 08:26:58;;;;;;;4.47;2.20;;;10.40;99.90;;;;;;4936476;29;20218;-70
2021/04/23 08:29:24;;;;;;;2.28;2.03;;;10.40;99.90;;;;;;4937181;29;20599;-70
2021/04/23 08:31:51;;;;;;;5.07;1.73;;;10.50;99.90;;;;;;4936922;29;20598;-71
2021/04/23 08:34:17;;;;;;;4.82;2.20;;;10.40;99.90;;;;;;4936776;29;20217;-70
2021/04/23 08:36:44;;;;;;;7.22;2.65;;;10.50;99.90;;;;;;4936483;29;20742;-70
2021/04/23 08:39:11;;;;;;;4.80;1.52;;;10.50;99.90;;;;;;4936340;29;20213;-70
2021/04/23 08:41:39;;;;;;;6.57;2.00;;;10.40;99.90;;;;;;4936086;29;20346;-70
2021/04/23 08:44:07;;;;;;;4.25;2.15;;;10.50;99.90;;;;;;4936104;29;20578;-70
2021/04/23 08:46:34;;;;;;;4.25;2.20;;;10.50;99.90;;;;;;4936567;29;20206;-70
2021/04/23 08:49:01;;;;;;;5.82;2.92;;;10.50;99.90;;;;;;4936655;29;20281;-70
2021/04/23 08:51:28;;;;;;;5.13;1.88;;;10.50;99.90;;;;;;4936346;29;20229;-70
2021/04/23 08:53:57;;;;;;;4.78;1.90;;;10.50;99.90;;;;;;4936360;29;20214;-70
2021/04/23 08:56:24;;;;;;;3.45;1.88;;;10.60;99.90;;;;;;4936027;29;20205;-70
2021/04/23 08:58:51;;;;;;;4.57;2.17;;;10.60;99.90;;;;;;4936325;29;20210;-69
2021/04/23 09:01:17;;;;;;;2.97;2.72;;;10.70;99.90;;;;;;4936284;29;20259;-69
2021/04/23 09:03:43;;;;;;;8.70;2.47;;;10.60;99.90;;;;;;4936094;29;20269;-70
2021/04/23 09:06:11;;;;;;;11.98;2.45;;;10.70;99.90;;;;;;4936242;29;20295;-70
2021/04/23 09:08:57;;;;;;;3.25;2.40;;;10.70;99.90;;;;;;4935989;29;20218;-70
2021/04/23 09:11:26;;;;;;;3.17;2.30;;;10.90;99.90;;;;;;4935826;29;20612;-70
2021/04/23 09:13:54;;;;;;;4.32;2.20;;;10.90;99.90;;;;;;4935741;29;20257;-70
2021/04/23 09:16:22;;;;;;;3.05;2.13;;;10.90;99.90;;;;;;4936256;29;20232;-70
2021/04/23 09:18:48;;;;;;;7.13;3.00;;;10.80;99.90;;;;;;4935847;29;20209;-70
2021/04/23 09:21:15;;;;;;;6.88;2.85;;;10.90;99.90;;;;;;4935683;29;20714;-70
2021/04/23 09:23:49;;;;;;;3.28;2.35;;;11.00;99.90;;;;;;4935816;29;20269;-70
2021/04/23 09:26:34;;;;;;;7.88;2.47;;;11.20;99.90;;;;;;4935720;29;20216;-70
2021/04/23 09:29:01;;;;;;;4.43;2.40;;;11.20;99.90;;;;;;4935369;29;20218;-70
2021/04/23 09:31:29;;;;;;;7.38;2.35;;;11.30;99.90;;;;;;4935826;29;20238;-70
2021/04/23 09:33:57;;;;;;;3.10;2.63;;;11.40;99.90;;;;;;4935318;29;20718;-70
2021/04/23 09:36:30;;;;;;;4.10;2.17;;;11.40;99.90;;;;;;4935730;29;20209;-70
2021/04/23 09:39:05;;;;;;;4.28;2.00;;;11.40;99.90;;;;;;4935655;29;20592;-69
2021/04/23 09:41:32;;;;;;;3.58;2.53;;;11.50;99.90;;;;;;4935561;29;20536;-69
2021/04/23 09:43:59;;;;;;;6.55;3.35;;;11.40;99.90;;;;;;4935219;29;20271;-70
2021/04/23 09:46:43;;;;;;;4.60;2.33;;;11.40;99.90;;;;;;4936228;29;20206;-69
2021/04/23 09:49:17;;;;;;;5.30;2.80;;;11.50;99.90;;;;;;4939172;29;20224;-69
2021/04/23 09:51:44;;;;;;;2.65;2.13;;;11.60;99.90;;;;;;4937526;29;20629;-69
2021/04/23 09:54:14;;;;;;;3.13;2.45;;;11.60;99.90;;;;;;4934832;29;20294;-69
2021/04/23 09:56:41;;;;;;;7.82;2.42;;;11.60;99.90;;;;;;4934792;29;20210;-69
2021/04/23 09:59:15;;;;;;;4.07;2.25;;;11.70;99.90;;;;;;4935084;29;20297;-69
2021/04/23 10:02:00;;;;;;;3.90;2.10;;;11.60;99.90;;;;;;4934927;29;20709;-69
2021/04/23 10:04:29;;;;;;;2.78;2.40;;;11.50;99.90;;;;;;4934953;29;20224;-69
2021/04/23 10:07:19;;;;;;;3.67;2.28;;;11.60;99.90;;;;;;4934818;28;20214;-69
2021/04/23 10:09:53;;;;;;;8.25;2.72;;;11.60;99.90;;;;;;4935318;29;20532;-69
2021/04/23 10:12:38;;;;;;;4.38;2.40;;;11.60;99.70;;;;;;4934744;29;20229;-68
2021/04/23 10:15:08;;;;;;;3.13;2.50;;;11.60;98.80;;;;;;4934936;29;20236;-68
2021/04/23 10:17:35;;;;;;;6.30;3.50;;;11.70;99.20;;;;;;4935087;29;20218;-70
2021/04/23 10:20:03;;;;;;;7.43;2.50;;;11.70;99.10;;;;;;4935203;29;20205;-70
2021/04/23 10:22:29;;;;;;;5.70;2.90;;;11.70;99.50;;;;;;4934919;29;20568;-70
2021/04/23 10:24:56;;;;;;;11.35;3.50;;;11.80;99.90;;;;;;4935565;29;20217;-71
2021/04/23 10:27:22;;;;;;;8.23;2.45;;;11.60;99.80;;;;;;4935405;29;20206;-70
2021/04/23 10:29:51;;;;;;;5.68;3.00;;;11.70;99.90;;;;;;4935390;29;20217;-70
2021/04/23 10:32:18;;;;;;;10.98;3.00;;;11.70;99.50;;;;;;4937459;29;20229;-70
2021/04/23 10:34:45;;;;;;;5.88;2.40;;;11.60;97.30;;;;;;4937576;29;20214;-70
2021/04/23 10:37:12;;;;;;;4.47;2.50;;;11.60;97.10;;;;;;4937859;29;20225;-70
2021/04/23 10:39:44;;;;;;;4.15;3.45;;;11.60;97.50;;;;;;4936761;29;20265;-70
2021/04/23 10:42:42;;;;;;;3.67;3.15;;;11.60;99.00;;;;;;4934994;29;20234;-70
2021/04/23 10:45:39;;;;;;;8.80;3.47;;;11.70;99.40;;;;;;4931949;29;20214;-70
2021/04/23 10:48:27;;;;;;;5.90;3.00;;;11.80;99.50;;;;;;4926910;29;20210;-70
2021/04/23 10:50:56;;;;;;;10.15;3.80;;;11.90;98.60;;;;;;4934641;29;20233;-70
2021/04/23 10:53:42;;;;;;;3.15;2.85;;;12.00;98.60;;;;;;4935288;29;20591;-71
2021/04/23 10:56:19;;;;;;;7.80;3.17;;;11.90;98.30;;;;;;4935970;29;20210;-71
2021/04/23 10:58:46;;;;;;;6.72;3.17;;;11.90;98.10;;;;;;4935189;29;20304;-71
2021/04/23 11:01:26;;;;;;;9.07;3.08;;;11.90;97.80;;;;;;4934711;29;20248;-71
2021/04/23 11:04:06;;;;;;;5.63;2.45;;;12.10;97.60;;;;;;4938451;29;20217;-69
2021/04/23 11:06:34;;;;;;;4.13;2.45;;;12.10;97.70;;;;;;4938620;28;20213;-69
2021/04/23 11:09:16;;;;;;;7.93;2.53;;;12.20;97.50;;;;;;4938109;29;20225;-70
2021/04/23 11:12:04;;;;;;;6.10;2.60;;;12.20;95.50;;;;;;4938071;29;20244;-70
2021/04/23 11:14:32;;;;;;;5.88;3.20;;;12.20;95.40;;;;;;4938652;29;20213;-73
2021/04/23 11:17:25;;;;;;;4.47;3.50;;;12.20;95.90;;;;;;4939660;29;20621;-74
2021/04/23 11:19:52;;;;;;;5.97;2.70;;;12.30;96.00;;;;;;4939408;29;20256;-73
2021/04/23 11:22:20;;;;;;;3.50;2.80;;;12.40;95.00;;;;;;4938919;29;20230;-74
2021/04/23 11:25:15;;;;;;;3.63;2.60;;;12.40;94.00;;;;;;4938539;29;20372;-74
2021/04/23 11:28:09;;;;;;;4.22;2.30;;;12.40;94.10;;;;;;4938688;29;20400;-75
2021/04/23 11:31:04;;;;;;;4.72;2.53;;;12.50;95.60;;;;;;4938772;29;20249;-73
2021/04/23 11:33:51;;;;;;;5.18;2.75;;;12.50;94.10;;;;;;4937943;29;20566;-72
2021/04/23 11:36:30;;;;;;;5.15;2.55;;;12.50;92.90;;;;;;4937757;29;20272;-73
2021/04/23 11:39:05;;;;;;;4.65;3.20;;;12.50;92.60;;;;;;4937696;29;20760;-70
2021/04/23 11:41:31;;;;;;;3.80;2.60;;;12.50;92.50;;;;;;4937424;29;20285;-70
2021/04/23 11:43:58;;;;;;;7.95;2.97;;;12.40;94.00;;;;;;4937018;29;20212;-70
2021/04/23 11:46:50;;;;;;;8.25;3.70;;;12.40;94.30;;;;;;4937452;29;20261;-69
2021/04/23 11:49:17;;;;;;;5.15;2.60;;;12.60;94.70;;;;;;4937213;29;20212;-70
2021/04/23 11:51:49;;;;;;;6.32;2.92;;;12.50;94.00;;;;;;4937359;29;20261;-70
2021/04/23 11:54:28;;;;;;;2.55;2.40;;;12.60;92.80;;;;;;4937116;29;20629;-70
2021/04/23 11:56:54;;;;;;;6.35;2.60;;;12.60;91.20;;;;;;4937044;29;20213;-72
2021/04/23 11:59:20;;;;;;;4.15;2.83;;;12.70;92.80;;;;;;4936858;29;20217;-72
2021/04/23 12:01:47;;;;;;;5.47;2.60;;;12.70;93.90;;;;;;4937083;29;20656;-71
2021/04/23 12:04:13;;;;;;;2.92;2.70;;;12.80;93.50;;;;;;4937142;29;20217;-69
2021/04/23 12:06:40;;;;;;;3.08;2.35;;;12.90;93.30;;;;;;4937196;28;20301;-74
2021/04/23 12:09:16;;;;;;;4.15;2.65;;;12.90;91.90;;;;;;4937309;29;20210;-73
2021/04/23 12:11:42;;;;;;;4.32;2.63;;;12.90;91.20;;;;;;4936336;29;20260;-73
2021/04/23 12:14:08;;;;;;;2.90;2.63;;;12.90;92.10;;;;;;4935458;29;20586;-73
2021/04/23 12:16:34;;;;;;;5.03;2.83;;;13.00;92.60;;;;;;4936999;29;20205;-73
2021/04/23 12:19:01;;;;;;;7.38;2.88;;;13.00;92.60;;;;;;4936746;29;20589;-73
2021/04/23 12:21:27;;;;;;;7.03;3.10;;;13.00;92.70;;;;;;4937198;29;20372;-74
2021/04/23 12:23:55;;;;;;;4.78;3.00;;;13.10;91.90;;;;;;4936466;29;20216;-73
2021/04/23 12:26:21;;;;;;;5.85;2.72;;;13.10;91.40;;;;;;4936244;29;20210;-73
2021/04/23 12:28:50;;;;;;;3.30;2.85;;;13.20;90.00;;;;;;4936160;29;20261;-73
2021/04/23 12:31:18;;;;;;;3.63;2.83;;;13.10;90.60;;;;;;4936779;29;20229;-73
2021/04/23 12:33:46;;;;;;;5.30;2.55;;;13.00;91.20;;;;;;4936371;29;20213;-73
2021/04/23 12:36:19;;;;;;;3.33;2.60;;;13.20;91.40;;;;;;4936452;29;20568;-73
2021/04/23 12:38:48;;;;;;;7.38;2.70;;;13.20;89.90;;;;;;4936484;29;20237;-73
2021/04/23 12:41:17;;;;;;;2.22;2.03;;;13.20;90.20;;;;;;4935552;29;20269;-71
2021/04/23 12:43:44;;;;;;;3.13;2.47;;;13.30;91.00;;;;;;4935503;29;20607;-71
2021/04/23 12:46:20;;;;;;;2.50;2.30;;;13.30;88.10;;;;;;4936239;29;20749;-70
2021/04/23 12:48:58;;;;;;;3.50;2.17;;;13.20;90.30;;;;;;4936179;29;20218;-70
2021/04/23 12:51:25;;;;;;;5.70;3.45;;;13.20;90.20;;;;;;4936278;29;20248;-70
2021/04/23 12:53:53;;;;;;;3.97;2.47;;;13.20;89.40;;;;;;4935940;29;20234;-70
2021/04/23 12:56:28;;;;;;;9.07;2.60;;;13.30;90.90;;;;;;4935607;29;20218;-70
2021/04/23 12:58:54;;;;;;;2.83;2.63;;;13.30;91.50;;;;;;4935625;29;20239;-70
2021/04/23 13:01:21;;;;;;;4.80;2.50;;;13.40;90.00;;;;;;4936181;29;20237;-71
2021/04/23 13:04:09;;;;;;;5.90;2.85;;;13.50;90.90;;;;;;4935384;29;20213;-71
2021/04/23 13:06:35;;;;;;;2.90;2.08;;;13.50;92.00;;;;;;4936294;28;20515;-69
2021/04/23 13:09:05;;;;;;;5.97;2.10;;;13.40;90.00;;;;;;4936086;29;20213;-71
2021/04/23 13:11:33;;;;;;;3.78;2.42;;;13.50;90.60;;;;;;4935903;29;20233;-71
2021/04/23 13:13:59;;;;;;;4.05;2.40;;;13.40;90.50;;;;;;4935073;29;20201;-71
2021/04/23 13:16:26;;;;;;;2.88;2.13;;;13.30;89.10;;;;;;4935829;29;20297;-71
2021/04/23 13:18:52;;;;;;;1.63;1.52;;;13.20;87.20;;;;;;4936059;29;20515;-72
2021/04/23 13:21:18;;;;;;;5.90;1.75;;;13.10;84.80;;;;;;4936496;29;20230;-70
2021/04/23 13:23:46;;;;;;;2.13;2.03;;;13.20;85.90;;;;;;4936450;29;20214;-71
2021/04/23 13:26:28;;;;;;;1.88;1.77;;;13.20;86.40;;;;;;4935459;29;20218;-71
2021/04/23 13:28:56;;;;;;;5.50;1.80;;;13.30;90.10;;;;;;4936243;29;20209;-71
2021/04/23 13:31:23;;;;;;;4.22;2.28;;;13.30;87.30;;;;;;4936652;29;20348;-71
2021/04/23 13:33:49;;;;;;;1.52;1.33;;;13.20;86.60;;;;;;4936350;29;20259;-72
2021/04/23 13:36:17;;;;;;;2.25;1.55;;;13.30;86.10;;;;;;4936307;29;20220;-71
2021/04/23 13:38:49;;;;;;;5.70;2.22;;;13.30;84.40;;;;;;4936134;29;20213;-72
2021/04/23 13:41:24;;;;;;;1.58;1.30;;;13.30;82.30;;;;;;4935098;29;20226;-71
2021/04/23 13:43:54;;;;;;;1.95;1.65;;;13.30;84.80;;;;;;4935700;29;20218;-71
2021/04/23 13:46:21;;;;;;;5.05;1.25;;;13.20;86.00;;;;;;4936876;29;20214;-70
2021/04/23 13:48:53;;;;;;;2.20;1.38;;;13.20;84.60;;;;;;4935499;29;20218;-70
2021/04/23 13:51:25;;;;;;;1.52;1.30;;;13.20;80.30;;;;;;4935016;29;20609;-70
2021/04/23 13:53:54;;;;;;;1.67;1.50;;;13.20;78.10;;;;;;4935025;29;20254;-70
2021/04/23 13:56:23;;;;;;;3.03;1.60;;;13.00;80.70;;;;;;4935009;29;20206;-70
2021/04/23 13:59:01;;;;;;;4.85;1.35;;;13.00;83.00;;;;;;4935098;29;20210;-70
2021/04/23 14:01:32;;;;;;;2.75;1.35;;;13.00;83.50;;;;;;4934860;29;20317;-70
2021/04/23 14:04:00;;;;;;;3.10;1.40;;;13.00;84.10;;;;;;4934734;29;20209;-70
2021/04/23 14:06:26;;;;;;;2.78;1.33;;;13.10;85.10;;;;;;4934728;28;20241;-70
2021/04/23 14:08:53;;;;;;;4.60;2.00;;;13.10;84.00;;;;;;4934987;29;20261;-69
2021/04/23 14:11:19;;;;;;;3.03;1.25;;;13.20;83.00;;;;;;4934527;29;20229;-72
2021/04/23 14:13:51;;;;;;;1.77;1.35;;;13.20;83.30;;;;;;4934654;29;20622;-69
2021/04/23 14:16:17;;;;;;;1.38;1.27;;;13.30;81.00;;;;;;4934804;29;20225;-70
2021/04/23 14:18:44;;;;;;;3.22;1.38;;;13.20;78.40;;;;;;4934898;29;20264;-70
2021/04/23 14:21:10;;;;;;;1.00;1.00;;;13.20;79.30;;;;;;4934918;29;20225;-70
2021/04/23 14:23:37;;;;;;;2.17;1.42;;;13.10;77.60;;;;;;4935202;29;20627;-70
2021/04/23 14:26:04;;;;;;;3.00;1.23;;;13.10;77.50;;;;;;4935617;29;20209;-71
2021/04/23 14:28:30;;;;;;;1.83;1.67;;;13.20;79.00;;;;;;4935389;29;20292;-71
2021/04/23 14:30:56;;;;;;;4.75;1.27;;;13.20;78.40;;;;;;4934670;29;20237;-69
2021/04/23 14:33:23;;;;;;;1.80;1.67;;;13.30;78.90;;;;;;4935010;29;20209;-68
2021/04/23 14:35:50;;;;;;;1.85;1.63;;;13.30;77.60;;;;;;4934731;29;20269;-68
2021/04/23 14:38:16;;;;;;;4.55;1.83;;;13.20;78.40;;;;;;4938015;29;20691;-68
2021/04/23 14:40:42;;;;;;;6.15;2.00;;;13.10;80.30;;;;;;4938048;29;20340;-68
2021/04/23 14:43:08;;;;;;;2.45;1.50;;;13.10;82.10;;;;;;4938699;29;20265;-69
2021/04/23 14:45:34;;;;;;;3.78;1.45;;;13.20;81.30;;;;;;4938243;29;20274;-71
2021/04/23 14:48:01;;;;;;;2.08;1.40;;;13.20;77.20;;;;;;4938883;29;20214;-71
2021/04/23 14:50:27;;;;;;;2.95;1.23;;;13.20;78.60;;;;;;4938785;29;20237;-71
2021/04/23 14:52:54;;;;;;;3.53;1.70;;;13.10;78.70;;;;;;4938607;29;20216;-71
2021/04/23 14:55:20;;;;;;;2.15;1.35;;;13.00;79.90;;;;;;4938034;29;20214;-71
2021/04/23 14:57:46;;;;;;;2.28;1.98;;;13.00;79.00;;;;;;4938663;29;20213;-71
2021/04/23 15:00:14;;;;;;;1.85;1.20;;;13.00;80.80;;;;;;4937626;29;20217;-71
2021/04/23 15:02:40;;;;;;;1.77;1.35;;;13.00;82.40;;;;;;4937999;29;20225;-71
2021/04/23 15:05:07;;;;;;;6.93;1.80;;;13.00;83.20;;;;;;4937817;29;20628;-70
2021/04/23 15:07:34;;;;;;;4.20;1.70;;;13.00;82.70;;;;;;4938107;28;20241;-71
2021/04/23 15:10:01;;;;;;;1.73;1.60;;;12.90;83.10;;;;;;4938145;29;20209;-71
2021/04/23 15:12:27;;;;;;;2.22;1.92;;;12.90;83.10;;;;;;4937322;29;20717;-72
2021/04/23 15:14:54;;;;;;;4.45;1.77;;;12.90;84.10;;;;;;4937447;29;20213;-71
2021/04/23 15:17:20;;;;;;;2.10;1.50;;;12.90;84.00;;;;;;4937965;29;20206;-70
2021/04/23 15:19:46;;;;;;;5.80;2.28;;;12.90;84.50;;;;;;4938311;29;20277;-71
2021/04/23 15:22:12;;;;;;;2.78;1.42;;;12.90;85.50;;;;;;4937497;29;20226;-71
2021/04/23 15:24:38;;;;;;;2.20;2.10;;;12.90;85.30;;;;;;4937875;29;20210;-71
2021/04/23 15:27:06;;;;;;;2.42;2.22;;;12.90;85.10;;;;;;4937432;29;20214;-71
2021/04/23 15:29:32;;;;;;;3.75;1.70;;;12.90;85.00;;;;;;4937442;29;20214;-71
2021/04/23 15:32:00;;;;;;;2.42;1.85;;;13.00;84.80;;;;;;4937425;29;20325;-70
2021/04/23 15:34:27;;;;;;;2.03;1.92;;;13.00;85.20;;;;;;4937779;29;20256;-71
2021/04/23 15:36:54;;;;;;;2.80;1.95;;;13.00;84.80;;;;;;4937924;29;20221;-70
2021/04/23 15:39:20;;;;;;;2.78;1.90;;;13.00;85.50;;;;;;4937626;29;20704;-70
2021/04/23 15:41:46;;;;;;;2.28;1.70;;;12.90;86.00;;;;;;4937266;29;20237;-71
2021/04/23 15:44:13;;;;;;;5.10;2.53;;;12.90;85.20;;;;;;4936931;29;20214;-71
2021/04/23 15:46:40;;;;;;;2.17;2.08;;;13.00;86.90;;;;;;4937324;29;20666;-71
2021/04/23 15:49:06;;;;;;;4.95;1.75;;;13.00;86.10;;;;;;4936462;29;20729;-71
2021/04/23 15:51:34;;;;;;;2.85;2.00;;;13.00;86.60;;;;;;4937243;29;20265;-71
2021/04/23 15:54:00;;;;;;;2.30;2.10;;;13.00;85.10;;;;;;4937242;29;20214;-71
2021/04/23 15:56:26;;;;;;;3.45;1.88;;;13.00;84.40;;;;;;4936716;29;20213;-71
2021/04/23 15:58:53;;;;;;;6.75;1.42;;;13.00;84.10;;;;;;4936706;29;20304;-71
2021/04/23 16:01:20;;;;;;;2.90;2.50;;;13.00;82.40;;;;;;4936723;29;20237;-71
2021/04/23 16:03:46;;;;;;;2.47;1.67;;;12.90;80.40;;;;;;4936820;29;20276;-71
2021/04/23 16:06:12;;;;;;;1.90;1.80;;;12.90;79.80;;;;;;4937349;29;20217;-71
2021/04/23 16:08:39;;;;;;;2.47;1.50;;;12.90;80.40;;;;;;4937193;29;20218;-70
2021/04/23 16:11:05;;;;;;;1.90;1.73;;;12.90;81.50;;;;;;4936686;29;20332;-71
2021/04/23 16:13:31;;;;;;;3.63;1.50;;;13.00;81.90;;;;;;4936414;29;20538;-71
2021/04/23 16:15:57;;;;;;;2.22;2.05;;;13.00;82.20;;;;;;4936808;29;20535;-71
2021/04/23 16:18:24;;;;;;;4.80;2.10;;;13.00;82.80;;;;;;4936993;29;20605;-71
2021/04/23 16:20:51;;;;;;;3.58;1.90;;;12.90;82.70;;;;;;4936437;29;20608;-71
2021/04/23 16:23:17;;;;;;;2.97;1.65;;;12.80;83.60;;;;;;4936520;29;20217;-71
2021/04/23 16:25:43;;;;;;;5.03;3.28;;;12.80;84.00;;;;;;4936160;29;20213;-71
2021/04/23 16:28:10;;;;;;;3.72;3.20;;;12.80;84.10;;;;;;4936485;29;20596;-71
2021/04/23 16:30:36;;;;;;;4.13;3.22;;;12.70;84.80;;;;;;4936052;29;20238;-71
2021/04/23 16:33:03;;;;;;;1.48;1.38;;;12.60;86.10;;;;;;4936262;29;20214;-71
2021/04/23 16:35:30;;;;;;;2.70;1.80;;;12.60;87.70;;;;;;4936147;29;20210;-71
2021/04/23 16:37:57;;;;;;;7.35;2.78;;;12.60;88.00;;;;;;4936236;29;20217;-71
2021/04/23 16:40:24;;;;;;;3.15;2.42;;;12.60;89.20;;;;;;4935662;29;20210;-71
2021/04/23 16:42:52;;;;;;;2.00;1.90;;;12.50;90.00;;;;;;4936038;29;20210;-69
2021/04/23 16:45:18;;;;;;;2.95;2.75;;;12.40;90.10;;;;;;4936315;29;20570;-69
2021/04/23 16:47:45;;;;;;;2.40;1.85;;;12.40;90.60;;;;;;4936178;29;20206;-69
2021/04/23 16:50:13;;;;;;;1.95;1.80;;;12.30;90.30;;;;;;4936097;29;20374;-69
2021/04/23 16:52:41;;;;;;;2.85;2.53;;;12.20;90.00;;;;;;4936251;29;20217;-69
2021/04/23 16:55:08;;;;;;;8.95;4.85;;;12.20;90.30;;;;;;4935877;29;20261;-71
2021/04/23 16:57:34;;;;;;;2.33;2.22;;;12.10;90.20;;;;;;4935954;29;20213;-69